Point Hope, AK (99766)

11:33 PM AKST on January 22, 2017 (GMT -0900)
Point Hope | | Change Station

Elev 13 ft 68.35 °N, 166.80 °W | Updated 37 minutes ago

Clear
Clear
-25 °F
Feels Like -41 °F
N
6
Wind Variable Wind from ENE

Today
High -- | Low -- °F
--% Chance of Precip.
Yesterday
High -- | Low -- °F
Precip. -- in
Pressure 29.99 in
Visibility 10.0 miles
Clouds Clear
Windchill -41 °F
Dew Point -30 °F
Humidity 78%
Rainfall 0.00 in
Snow Depth Not available.
12:11 PM 4:27 PM
Waning Crescent, 20% visible
METAR PAPO 230756Z AUTO 06005KT 10SM CLR M32/M34 A2999 RMK AO2 SLP155 T13171344 FZRANO
Pressure 29.99 in
Visibility 10.0 miles
Clouds Clear
Windchill -41 °F
Dew Point -30 °F
Humidity 78%
Rainfall 0.00 in
Snow Depth Not available.
12:11 PM 4:27 PM
Waning Crescent, 20% visible
METAR PAPO 230756Z AUTO 06005KT 10SM CLR M32/M34 A2999 RMK AO2 SLP155 T13171344 FZRANO

Get Your Daily Forecast Email!

Thanks for signing up!

Be on the lookout for a verification email in your inbox.

You'll start receiving the daily forecast at 8 AM.

×

10-Day Weather Forecast

Almanac

Astronomy

Jan. 22, 2017 Rise Set
Actual Time
Civil Twilight
Nautical Twilight
Astronomical Twilight
Moon
Length of Visible Light
Length of Day
Tomorrow will be .
, % of the Moon is Illuminated

Today's Extremes

State Highs State Lows

Community

WunderPhotos

Upload Photos

1,962,540 photos uploaded!

WunderBlog® & News

Nearby

Air Quality

  Air Quality AQ Index Pollutant
Not available.

Snow Depth

Station Depth Elevation

Earthquake Activity

City Distance Mag. Time & Date
Minimum magnitude displayed is 2.5.

Coastal Water Temperatures

Place Temperature

Stations

Nearby Weather Stations

Station Location Temp. Windchill Dew Point Humidity Wind Precip. Elev Updated Type
                   

Watches & Warnings

There are currently no watches in effect.